Time;durP1;ratioP1;P1;durP2;ratioP2;P2;SDS_P1;SDS_P2;PMS_P1;PMS_P2;Temp;Humidity;BMP_temperature;BMP_pressure;BME280_temperature;BME280_humidity;BME280_pressure;Samples;Min_cycle;Max_cycle;Signal;HPM_P1;HPM_P2
2023/03/27 00:00:19;;;;;;;0.65;0.60;;;;;;;3.61;100.00;94239.28;5049328;28;20492;-72
2023/03/27 00:03:05;;;;;;;2.28;0.70;;;;;;;3.54;100.00;94243.19;5033049;28;20046;-72
2023/03/27 00:05:30;;;;;;;1.25;0.80;;;;;;;3.55;100.00;94255.94;5042698;28;20040;-72
2023/03/27 00:07:56;;;;;;;3.53;0.65;;;;;;;3.51;100.00;94254.88;5046487;28;20037;-71
2023/03/27 00:10:23;;;;;;;1.35;0.70;;;;;;;3.51;100.00;94254.88;5046769;28;20476;-72
2023/03/27 00:12:49;;;;;;;2.42;0.80;;;;;;;3.50;100.00;94253.28;5036284;28;20046;-72
2023/03/27 00:15:16;;;;;;;1.15;0.80;;;;;;;3.51;100.00;94249.66;5046436;28;20539;-72
2023/03/27 00:17:51;;;;;;;1.00;0.50;;;;;;;3.46;100.00;94249.63;5046433;28;20412;-72
2023/03/27 00:20:21;;;;;;;2.00;1.00;;;;;;;3.47;100.00;94251.22;5043864;28;20097;-73
2023/03/27 00:22:48;;;;;;;2.33;0.82;;;;;;;3.46;100.00;94247.03;5035045;28;20052;-72
2023/03/27 00:25:16;;;;;;;1.13;0.47;;;;;;;3.50;100.00;94242.88;5040156;28;20048;-73
2023/03/27 00:27:42;;;;;;;3.30;0.63;;;;;;;3.40;100.00;94242.88;5042479;28;20045;-72
2023/03/27 00:30:09;;;;;;;1.35;0.60;;;;;;;3.37;100.00;94248.56;5044639;28;20045;-73
2023/03/27 00:32:35;;;;;;;1.75;0.50;;;;;;;3.40;100.00;94243.63;5042970;28;20072;-73
2023/03/27 00:35:02;;;;;;;0.82;0.52;;;;;;;3.36;100.00;94247.00;5041947;28;20040;-73
2023/03/27 00:37:27;;;;;;;1.77;0.93;;;;;;;3.36;100.00;94247.00;5035188;28;20072;-73
2023/03/27 00:39:54;;;;;;;1.40;0.82;;;;;;;3.39;100.00;94249.91;5044624;28;20044;-72
2023/03/27 00:42:21;;;;;;;3.85;1.02;;;;;;;3.39;100.00;94249.91;5040557;28;20057;-71
2023/03/27 00:44:51;;;;;;;2.13;1.00;;;;;;;3.39;100.00;94241.28;5041439;28;20075;-72
2023/03/27 00:47:24;;;;;;;3.10;1.05;;;;;;;3.48;100.00;94237.19;5047465;28;20043;-72
2023/03/27 00:49:51;;;;;;;2.85;1.10;;;;;;;3.48;100.00;94242.38;5048718;28;20786;-72
2023/03/27 00:52:18;;;;;;;3.42;1.10;;;;;;;3.49;100.00;94241.31;5048435;28;20049;-71
2023/03/27 00:54:44;;;;;;;1.02;0.85;;;;;;;3.54;100.00;94249.16;5044503;28;20045;-71
2023/03/27 00:57:15;;;;;;;1.50;1.05;;;;;;;3.60;100.00;94248.13;5037734;28;20448;-73
2023/03/27 00:59:42;;;;;;;2.95;0.88;;;;;;;3.63;100.00;94247.63;5043497;28;20110;-72
2023/03/27 01:02:08;;;;;;;1.95;0.90;;;;;;;3.62;100.00;94246.06;5046321;28;20151;-72
2023/03/27 01:04:36;;;;;;;2.40;0.80;;;;;;;3.69;100.00;94250.22;5037774;28;20123;-71
2023/03/27 01:07:10;;;;;;;4.63;1.20;;;;;;;3.66;100.00;94242.94;5037994;28;20053;-71
2023/03/27 01:09:38;;;;;;;5.07;1.10;;;;;;;3.63;100.00;94242.44;5032243;28;20482;-71
2023/03/27 01:12:41;;;;;;;1.40;0.88;;;;;;;3.63;100.00;94247.63;5039486;28;20050;-72
2023/03/27 01:15:40;;;;;;;0.85;0.82;;;;;;;3.73;100.00;94244.25;5058543;28;20041;-71
2023/03/27 01:18:31;;;;;;;1.25;0.68;;;;;;;3.68;100.00;94243.47;5051116;28;20057;-71
2023/03/27 01:21:45;;;;;;;2.58;1.10;;;;;;;3.75;100.00;94246.59;5043936;28;20069;-72
2023/03/27 01:24:46;;;;;;;1.35;0.73;;;;;;;3.66;100.00;94240.34;5040314;28;20061;-72
2023/03/27 01:27:20;;;;;;;1.15;0.60;;;;;;;3.68;100.00;94246.06;5034435;28;20272;-72
2023/03/27 01:29:57;;;;;;;1.65;0.82;;;;;;;3.63;100.00;94246.84;5038251;28;20041;-72
2023/03/27 01:32:31;;;;;;;1.08;0.65;;;;;;;3.63;100.00;94247.63;5045730;28;20098;-72
2023/03/27 01:35:30;;;;;;;1.75;1.02;;;;;;;3.66;100.00;94245.53;5043681;28;20492;-71
2023/03/27 01:38:27;;;;;;;0.70;0.55;;;;;;;3.61;100.00;94244.50;5043534;28;20044;-72
2023/03/27 01:41:02;;;;;;;1.38;0.80;;;;;;;3.59;100.00;94241.38;5038659;28;20543;-71
2023/03/27 01:43:36;;;;;;;0.50;0.50;;;;;;;3.53;100.00;94242.38;5039806;28;20049;-71
2023/03/27 01:46:14;;;;;;;2.42;0.90;;;;;;;3.49;100.00;94254.31;5042683;28;20111;-72
2023/03/27 01:48:44;;;;;;;1.48;0.60;;;;;;;3.49;100.00;94240.53;5044996;28;20060;-72
2023/03/27 01:51:19;;;;;;;1.95;0.70;;;;;;;3.43;100.00;94252.75;5042379;28;20041;-73
2023/03/27 01:53:55;;;;;;;2.58;1.00;;;;;;;3.35;100.00;94250.63;5043683;28;20091;-72
2023/03/27 01:56:31;;;;;;;1.88;1.00;;;;;;;3.31;100.00;94249.59;5039768;28;20090;-72
2023/03/27 01:59:10;;;;;;;2.10;1.00;;;;;;;3.21;100.00;94258.91;5035460;28;20488;-72
2023/03/27 02:01:39;;;;;;;1.48;1.00;;;;;;;3.23;100.00;94254.25;5043263;28;20120;-72
2023/03/27 02:04:11;;;;;;;1.15;1.00;;;;;;;3.12;100.00;94260.44;5036173;28;20123;-72
2023/03/27 02:06:42;;;;;;;1.48;1.00;;;;;;;3.11;100.00;94261.47;5038785;28;20073;-72
2023/03/27 02:09:16;;;;;;;1.63;0.95;;;;;;;3.08;100.00;94251.56;5043148;28;20040;-72
2023/03/27 02:11:52;;;;;;;2.08;1.00;;;;;;;3.08;100.00;94269.78;5045251;28;20790;-72
2023/03/27 02:14:24;;;;;;;1.10;1.00;;;;;;;3.12;100.00;94268.22;5036642;28;20045;-71
2023/03/27 02:16:55;;;;;;;1.50;0.82;;;;;;;3.16;100.00;94264.09;5041978;28;20044;-72
2023/03/27 02:19:33;;;;;;;1.27;0.90;;;;;;;3.13;100.00;94256.78;5041001;28;20436;-72
2023/03/27 02:22:00;;;;;;;2.33;0.95;;;;;;;3.13;100.00;94264.56;5032471;28;20049;-71
2023/03/27 02:24:25;;;;;;;2.28;0.80;;;;;;;3.15;100.00;94272.91;5039413;28;20496;-72
2023/03/27 02:27:00;;;;;;;1.05;0.82;;;;;;;3.18;100.00;94267.22;5035964;28;20045;-72
2023/03/27 02:29:43;;;;;;;0.68;0.65;;;;;;;3.15;100.00;94269.53;5038059;28;20124;-72
2023/03/27 02:32:24;;;;;;;0.82;0.82;;;;;;;3.16;100.00;94277.09;5036220;28;20037;-72
2023/03/27 02:35:19;;;;;;;0.95;0.80;;;;;;;3.16;100.00;94282.28;5036676;28;20428;-72
2023/03/27 02:37:55;;;;;;;2.55;0.90;;;;;;;3.16;100.00;94284.91;5043084;28;20504;-72
2023/03/27 02:40:39;;;;;;;0.80;0.80;;;;;;;3.21;100.00;94286.72;5050157;28;20027;-70
2023/03/27 02:43:16;;;;;;;2.38;1.15;;;;;;;3.12;100.00;94289.03;5057976;28;20029;-70
2023/03/27 02:46:00;;;;;;;1.17;1.08;;;;;;;3.17;100.00;94296.84;5060549;28;20238;-70
2023/03/27 02:48:37;;;;;;;0.60;0.60;;;;;;;3.15;100.00;94288.53;5060525;28;20036;-70
2023/03/27 02:51:18;;;;;;;1.20;1.00;;;;;;;3.10;100.00;94291.88;5063295;28;20052;-70
2023/03/27 02:53:51;;;;;;;1.10;1.00;;;;;;;3.06;100.00;94295.22;5064064;28;20029;-70
2023/03/27 02:56:21;;;;;;;0.70;0.70;;;;;;;3.04;100.00;94292.88;5062667;28;20059;-70
2023/03/27 02:58:58;;;;;;;0.85;0.85;;;;;;;3.06;100.00;94296.00;5059237;28;20037;-71
2023/03/27 03:01:25;;;;;;;1.48;0.82;;;;;;;3.02;100.00;94300.16;5069175;28;20025;-69
2023/03/27 03:03:59;;;;;;;0.82;0.82;;;;;;;3.01;100.00;94300.41;5063360;28;20049;-71
2023/03/27 03:06:30;;;;;;;0.90;0.90;;;;;;;3.03;100.00;94308.72;5032234;28;20037;-70
2023/03/27 03:09:04;;;;;;;1.30;1.00;;;;;;;2.93;100.00;94306.84;5036075;28;20111;-73
2023/03/27 03:11:32;;;;;;;0.70;0.70;;;;;;;2.89;100.00;94301.38;5045175;28;20048;-72
2023/03/27 03:13:58;;;;;;;1.05;0.80;;;;;;;3.03;100.00;94311.31;5040816;28;21078;-71
2023/03/27 03:16:24;;;;;;;1.27;0.75;;;;;;;2.93;100.00;94315.44;5036329;28;20041;-72
2023/03/27 03:18:49;;;;;;;1.23;0.77;;;;;;;2.93;100.00;94312.84;5036840;28;20045;-72
2023/03/27 03:21:15;;;;;;;0.57;0.57;;;;;;;2.84;100.00;94313.53;5039046;28;20068;-72
2023/03/27 03:23:41;;;;;;;0.63;0.63;;;;;;;2.89;100.00;94327.34;5030883;28;20120;-71
2023/03/27 03:26:07;;;;;;;1.42;0.77;;;;;;;2.80;100.00;94328.06;5032619;28;20029;-71
2023/03/27 03:28:33;;;;;;;0.80;0.80;;;;;;;2.80;100.00;94328.84;5036989;28;20038;-70
2023/03/27 03:31:01;;;;;;;0.80;0.80;;;;;;;2.78;100.00;94328.31;5030288;28;20128;-72
2023/03/27 03:33:28;;;;;;;1.25;0.85;;;;;;;2.76;100.00;94332.97;5045354;28;20044;-71
2023/03/27 03:35:59;;;;;;;0.85;0.80;;;;;;;2.82;100.00;94337.19;5037053;28;20045;-72
2023/03/27 03:38:26;;;;;;;1.10;1.00;;;;;;;2.74;100.00;94340.22;5031072;28;20177;-71
2023/03/27 03:40:58;;;;;;;0.90;0.90;;;;;;;2.79;100.00;94337.69;5033998;28;20519;-71
2023/03/27 03:43:26;;;;;;;0.80;0.80;;;;;;;2.75;100.00;94331.41;5038028;28;20037;-70
2023/03/27 03:45:53;;;;;;;1.58;1.17;;;;;;;2.79;100.00;94337.69;5044995;28;20048;-71
2023/03/27 03:48:20;;;;;;;1.05;1.00;;;;;;;2.71;100.00;94351.91;5044690;28;20151;-71
2023/03/27 03:50:47;;;;;;;4.25;1.33;;;;;;;2.68;100.00;94351.63;5041294;28;20049;-71
2023/03/27 03:53:19;;;;;;;1.33;1.23;;;;;;;2.59;100.00;94354.66;5041484;28;20500;-71
2023/03/27 03:55:45;;;;;;;1.27;1.10;;;;;;;2.59;100.00;94362.44;5033150;28;20049;-72
2023/03/27 03:58:11;;;;;;;2.92;1.10;;;;;;;2.52;100.00;94364.47;5033083;28;20037;-72
2023/03/27 04:00:38;;;;;;;1.73;1.00;;;;;;;2.46;100.00;94370.66;5029535;28;20033;-71
2023/03/27 04:03:06;;;;;;;1.83;1.17;;;;;;;2.47;100.00;94377.44;5038009;28;20037;-72
2023/03/27 04:05:33;;;;;;;1.85;1.20;;;;;;;2.40;100.00;94382.81;5039724;28;20060;-71
2023/03/27 04:07:58;;;;;;;7.07;1.50;;;;;;;2.41;100.00;94383.56;5037284;28;20501;-72
2023/03/27 04:10:28;;;;;;;1.42;1.27;;;;;;;2.41;100.00;94383.56;5042557;28;20053;-71
2023/03/27 04:12:54;;;;;;;1.45;1.30;;;;;;;2.28;100.00;94394.38;5035398;28;20056;-71
2023/03/27 04:15:20;;;;;;;2.40;1.80;;;;;;;2.18;100.00;94401.00;5041682;28;20047;-70
2023/03/27 04:17:47;;;;;;;2.72;1.15;;;;;;;2.18;100.00;94395.81;5043911;28;20072;-72
2023/03/27 04:20:13;;;;;;;1.60;1.20;;;;;;;2.21;100.00;94394.53;5049145;28;20048;-72
2023/03/27 04:22:45;;;;;;;1.52;1.30;;;;;;;2.21;100.00;94397.13;5038464;28;20038;-72
2023/03/27 04:25:12;;;;;;;1.73;1.40;;;;;;;2.22;100.00;94389.09;5037369;28;20520;-72
2023/03/27 04:27:38;;;;;;;3.03;1.52;;;;;;;2.32;100.00;94390.25;5045959;28;20493;-72
2023/03/27 04:30:07;;;;;;;4.43;3.20;;;;;;;2.31;100.00;94393.88;5034473;28;20124;-72
2023/03/27 04:32:33;;;;;;;3.42;2.50;;;;;;;2.40;100.00;94397.63;5036679;28;20382;-72
2023/03/27 04:34:59;;;;;;;3.00;1.95;;;;;;;2.40;100.00;94397.63;5046366;28;20043;-72
2023/03/27 04:37:26;;;;;;;2.88;1.70;;;;;;;2.45;100.00;94415.81;5039970;28;20037;-73
2023/03/27 04:39:51;;;;;;;3.88;1.92;;;;;;;2.50;100.00;94418.47;5045139;28;20500;-73
2023/03/27 04:42:21;;;;;;;4.10;2.35;;;;;;;2.53;100.00;94423.19;5044241;28;20124;-73
2023/03/27 04:44:47;;;;;;;3.75;2.40;;;;;;;2.58;100.00;94438.78;5038742;28;20124;-72
2023/03/27 04:47:13;;;;;;;3.65;2.28;;;;;;;2.58;100.00;94436.19;5040242;28;20042;-72
2023/03/27 04:49:49;;;;;;;4.70;2.35;;;;;;;2.62;100.00;94435.75;5042559;28;20065;-71
2023/03/27 04:52:16;;;;;;;5.05;2.83;;;;;;;2.69;100.00;94446.72;5040917;28;20642;-72
2023/03/27 04:54:43;;;;;;;3.83;2.33;;;;;;;2.60;100.00;94465.31;5043573;28;20052;-72
2023/03/27 04:57:09;;;;;;;3.55;2.20;;;;;;;2.62;100.00;94472.09;5045398;28;20041;-70
2023/03/27 04:59:35;;;;;;;4.32;2.00;;;;;;;2.64;100.00;94478.59;5037678;28;20033;-71
2023/03/27 05:02:04;;;;;;;4.30;1.70;;;;;;;2.59;100.00;94484.53;5040145;28;20037;-72
2023/03/27 05:04:31;;;;;;;4.63;1.98;;;;;;;2.55;100.00;94488.63;5049219;28;20126;-72
2023/03/27 05:06:58;;;;;;;3.13;2.03;;;;;;;2.63;100.00;94486.63;5036653;28;20044;-72
2023/03/27 05:09:25;;;;;;;3.50;2.20;;;;;;;2.55;100.00;94498.25;5043903;28;20106;-73
2023/03/27 05:11:51;;;;;;;3.33;2.13;;;;;;;2.56;100.00;94505.81;5039924;28;20091;-74
2023/03/27 05:14:21;;;;;;;3.25;1.90;;;;;;;2.51;100.00;94513.53;5043745;28;20041;-74
2023/03/27 05:16:56;;;;;;;3.03;1.95;;;;;;;2.53;100.00;94527.06;5046058;28;20128;-74
2023/03/27 05:19:22;;;;;;;4.43;2.20;;;;;;;2.45;100.00;94537.88;5044587;28;20496;-74
2023/03/27 05:21:48;;;;;;;3.83;1.98;;;;;;;2.44;100.00;94528.50;5057590;28;20045;-75
2023/03/27 05:24:15;;;;;;;4.28;2.03;;;;;;;2.45;100.00;94547.50;5042084;28;20048;-75
2023/03/27 05:26:41;;;;;;;5.93;2.10;;;;;;;2.36;100.00;94552.31;5048251;28;20553;-74
2023/03/27 05:29:07;;;;;;;2.92;1.80;;;;;;;2.28;100.00;94555.31;5045850;28;20117;-76
2023/03/27 05:31:34;;;;;;;5.20;2.50;;;;;;;2.36;100.00;94562.69;5039056;28;20068;-72
2023/03/27 05:34:00;;;;;;;3.53;2.17;;;;;;;2.41;100.00;94576.53;5042859;28;20041;-73
2023/03/27 05:36:28;;;;;;;4.13;2.30;;;;;;;2.43;100.00;94589.28;5046450;28;20033;-74
2023/03/27 05:38:55;;;;;;;6.35;2.33;;;;;;;2.35;100.00;94579.28;5049298;28;20454;-74
2023/03/27 05:41:20;;;;;;;8.57;2.35;;;;;;;2.34;100.00;94595.91;5035387;28;20046;-74
2023/03/27 05:43:46;;;;;;;5.53;2.33;;;;;;;2.32;100.00;94608.34;5041042;28;20120;-76
2023/03/27 05:46:12;;;;;;;3.70;2.40;;;;;;;2.25;100.00;94609.28;5045306;28;20057;-75
2023/03/27 05:48:38;;;;;;;3.83;2.30;;;;;;;2.29;100.00;94630.38;5049664;28;20036;-75
2023/03/27 05:51:05;;;;;;;3.95;2.20;;;;;;;2.20;100.00;94627.41;5041985;28;20496;-73
2023/03/27 05:53:30;;;;;;;3.63;2.20;;;;;;;2.20;100.00;94635.19;5040013;28;20040;-74
2023/03/27 05:55:56;;;;;;;4.93;2.47;;;;;;;2.18;100.00;94645.00;5042388;28;20091;-72
2023/03/27 05:58:21;;;;;;;5.32;2.40;;;;;;;2.10;100.00;94652.41;5045882;28;20049;-72
2023/03/27 06:00:49;;;;;;;4.25;2.40;;;;;;;2.09;100.00;94651.63;5040981;28;20457;-72
2023/03/27 06:03:15;;;;;;;4.18;2.42;;;;;;;2.06;100.00;94684.03;5044701;28;20083;-74
2023/03/27 06:05:41;;;;;;;4.45;2.47;;;;;;;2.13;100.00;94693.47;5041527;28;20423;-72
2023/03/27 06:08:08;;;;;;;5.88;2.85;;;;;;;2.00;100.00;94689.38;5045150;28;20054;-73
2023/03/27 06:10:34;;;;;;;5.15;3.03;;;;;;;1.94;100.00;94703.28;5040981;28;20038;-72
2023/03/27 06:13:08;;;;;;;5.25;2.45;;;;;;;1.85;100.00;94714.06;5042233;28;20056;-71
2023/03/27 06:15:37;;;;;;;5.53;2.90;;;;;;;1.84;100.00;94728.06;5047276;28;20041;-71
2023/03/27 06:18:03;;;;;;;5.00;2.75;;;;;;;1.78;100.00;94738.56;5042276;28;20429;-71
2023/03/27 06:20:29;;;;;;;5.07;2.70;;;;;;;1.68;100.00;94746.94;5043104;28;20116;-71
2023/03/27 06:22:59;;;;;;;5.05;2.70;;;;;;;1.62;100.00;94760.84;5042551;28;20048;-71
2023/03/27 06:25:26;;;;;;;6.82;2.97;;;;;;;1.52;100.00;94766.63;5039744;28;20042;-71
2023/03/27 06:27:52;;;;;;;5.43;3.17;;;;;;;1.64;100.00;94769.16;5044144;28;20032;-71
2023/03/27 06:30:21;;;;;;;6.53;3.22;;;;;;;1.59;100.00;94776.88;5033238;28;20038;-71
2023/03/27 06:32:51;;;;;;;5.20;2.50;;;;;;;1.54;100.00;94783.53;5046814;28;20511;-71
2023/03/27 06:35:18;;;;;;;6.28;2.72;;;;;;;1.60;100.00;94794.00;5038375;28;20036;-71
2023/03/27 06:37:47;;;;;;;5.78;2.35;;;;;;;1.49;100.00;94809.34;5040970;28;20464;-71
2023/03/27 06:40:23;;;;;;;5.57;2.78;;;;;;;1.39;100.00;94827.28;5047923;28;20045;-71
2023/03/27 06:42:50;;;;;;;3.90;2.30;;;;;;;1.42;100.00;94824.25;5035330;28;20485;-71
2023/03/27 06:45:16;;;;;;;4.00;2.10;;;;;;;1.26;100.00;94825.72;5042619;28;20045;-71
2023/03/27 06:47:53;;;;;;;3.80;2.10;;;;;;;1.32;100.00;94834.41;5034910;28;20056;-70
2023/03/27 06:50:21;;;;;;;5.93;2.08;;;;;;;1.25;100.00;94850.09;5034030;28;20257;-71
2023/03/27 06:52:47;;;;;;;4.60;2.33;;;;;;;1.18;100.00;94855.38;5034984;28;20559;-71
2023/03/27 06:55:14;;;;;;;4.70;2.40;;;;;;;1.12;100.00;94860.69;5038042;28;20041;-71
2023/03/27 06:57:44;;;;;;;2.90;1.85;;;;;;;1.19;100.00;94876.91;5045149;28;20498;-71
2023/03/27 07:00:13;;;;;;;3.83;2.17;;;;;;;1.23;100.00;94878.03;5039573;28;20044;-71
2023/03/27 07:02:39;;;;;;;11.35;2.50;;;;;;;1.17;100.00;94879.72;5042517;28;20037;-71
2023/03/27 07:05:07;;;;;;;4.32;2.33;;;;;;;1.17;100.00;94892.69;5044149;28;20040;-71
2023/03/27 07:07:33;;;;;;;4.05;2.40;;;;;;;1.16;100.00;94893.69;5043215;28;20040;-71
2023/03/27 07:09:59;;;;;;;5.38;2.65;;;;;;;1.02;100.00;94907.88;5048080;28;20036;-70
2023/03/27 07:12:25;;;;;;;5.55;2.78;;;;;;;1.02;100.00;94913.06;5041662;28;20045;-71
2023/03/27 07:14:50;;;;;;;4.75;2.60;;;;;;;1.08;100.00;94917.38;5041906;28;20056;-71
2023/03/27 07:17:16;;;;;;;5.30;2.10;;;;;;;1.12;100.00;94922.88;5047949;28;20033;-71
2023/03/27 07:19:41;;;;;;;4.03;2.00;;;;;;;1.07;100.00;94941.69;5041724;28;20037;-71
2023/03/27 07:22:07;;;;;;;5.53;2.53;;;;;;;1.12;100.00;94939.22;5045601;28;20111;-71
2023/03/27 07:24:34;;;;;;;3.90;1.88;;;;;;;1.12;100.00;94948.78;5040530;28;20049;-71
2023/03/27 07:26:59;;;;;;;3.88;2.00;;;;;;;1.07;100.00;94962.41;5044071;28;20503;-71
2023/03/27 07:29:25;;;;;;;5.28;2.35;;;;;;;1.03;100.00;94969.06;5042163;28;20037;-71
2023/03/27 07:31:50;;;;;;;5.65;2.42;;;;;;;0.89;100.00;94973.66;5038201;28;20532;-71
2023/03/27 07:34:16;;;;;;;6.20;2.33;;;;;;;0.84;100.00;94969.13;5039434;28;20044;-71
2023/03/27 07:36:42;;;;;;;3.72;2.10;;;;;;;0.79;100.00;94987.16;5038908;28;20044;-71
2023/03/27 07:39:08;;;;;;;4.13;2.17;;;;;;;0.82;100.00;94986.69;5044707;28;20041;-71
2023/03/27 07:41:33;;;;;;;4.13;1.83;;;;;;;0.94;100.00;94993.72;5044743;28;20444;-69
2023/03/27 07:44:00;;;;;;;4.00;2.25;;;;;;;1.14;100.00;94999.41;5034470;28;20068;-70
2023/03/27 07:46:26;;;;;;;2.78;1.75;;;;;;;0.99;100.00;95006.78;5044938;28;20109;-69
2023/03/27 07:48:54;;;;;;;3.85;2.20;;;;;;;0.92;100.00;95011.28;5046105;28;20509;-72
2023/03/27 07:51:19;;;;;;;6.18;1.98;;;;;;;0.95;100.00;95026.38;5044513;28;20037;-70
2023/03/27 07:53:45;;;;;;;8.32;2.00;;;;;;;0.81;100.00;95041.31;5040477;28;20047;-71
2023/03/27 07:56:11;;;;;;;3.70;2.03;;;;;;;0.63;100.00;95040.34;5041446;28;20037;-70
2023/03/27 07:58:36;;;;;;;4.60;2.53;;;;;;;0.70;100.00;95037.66;5036172;28;20065;-71
2023/03/27 08:01:02;;;;;;;3.60;2.17;;;;;;;0.70;100.00;95048.00;5042985;28;20979;-70
2023/03/27 08:03:29;;;;;;;6.85;3.15;;;;;;;0.76;100.00;95054.13;5044835;28;20096;-71
2023/03/27 08:05:58;;;;;;;4.28;2.47;;;;;;;0.76;100.00;95060.13;5040524;28;20045;-70
2023/03/27 08:08:25;;;;;;;4.78;2.60;;;;;;;0.68;100.00;95073.34;5033949;28;20036;-71
2023/03/27 08:10:54;;;;;;;8.18;3.80;;;;;;;0.65;100.00;95076.38;5043337;28;20037;-73
2023/03/27 08:13:19;;;;;;;9.93;3.70;;;;;;;0.69;100.00;95080.91;5044987;28;20052;-72
2023/03/27 08:15:45;;;;;;;10.63;3.75;;;;;;;0.60;100.00;95091.75;5046797;28;20045;-71
2023/03/27 08:18:11;;;;;;;7.28;4.00;;;;;;;0.76;100.00;95096.38;5045756;28;20037;-72
2023/03/27 08:20:37;;;;;;;8.70;4.03;;;;;;;0.81;100.00;95093.91;5043462;28;20044;-72
2023/03/27 08:23:03;;;;;;;10.57;4.97;;;;;;;0.89;100.00;95110.16;5036521;28;20049;-72
2023/03/27 08:25:31;;;;;;;9.90;5.20;;;;;;;0.94;100.00;95118.09;5040186;28;20826;-72
2023/03/27 08:28:01;;;;;;;13.43;5.63;;;;;;;1.09;100.00;95120.28;5044070;28;20078;-72
2023/03/27 08:30:27;;;;;;;13.93;5.85;;;;;;;1.21;100.00;95124.50;5047471;28;20048;-72
2023/03/27 08:32:53;;;;;;;16.75;6.88;;;;;;;1.33;100.00;95136.72;5045642;28;20051;-72
2023/03/27 08:35:19;;;;;;;15.50;6.78;;;;;;;1.36;100.00;95142.25;5042012;28;20429;-72
2023/03/27 08:37:45;;;;;;;17.00;6.93;;;;;;;1.35;100.00;95151.06;5046718;28;20045;-71
2023/03/27 08:40:26;;;;;;;19.48;7.40;;;;;;;1.45;100.00;95154.91;5040344;28;20060;-71
2023/03/27 08:42:57;;;;;;;22.30;7.30;;;;;;;1.64;100.00;95163.41;5042575;28;20053;-71
2023/03/27 08:45:30;;;;;;;18.13;6.70;;;;;;;1.71;100.00;95164.13;5040605;28;20048;-71
2023/03/27 08:48:20;;;;;;;20.77;7.35;;;;;;;1.63;100.00;95169.66;5044747;28;20091;-71
2023/03/27 08:50:57;;;;;;;21.25;7.35;;;;;;;1.53;100.00;95176.13;5042234;28;20098;-71
2023/03/27 08:53:38;;;;;;;19.17;6.03;;;;;;;1.53;100.00;95185.72;5042675;28;21304;-71
2023/03/27 08:56:05;;;;;;;19.02;6.65;;;;;;;1.38;100.00;95192.09;5034660;28;20042;-70
2023/03/27 08:58:33;;;;;;;18.23;6.80;;;;;;;1.11;100.00;95196.81;5038654;28;20037;-71
2023/03/27 09:01:05;;;;;;;20.67;7.88;;;;;;;1.12;100.00;95207.97;5039973;28;20520;-71
2023/03/27 09:03:46;;;;;;;17.30;7.72;;;;;;;1.16;100.00;95209.13;5038559;28;20038;-70
2023/03/27 09:06:38;;;;;;;20.80;8.52;;;;;;;1.10;100.00;95215.94;5040829;28;20115;-71
2023/03/27 09:09:25;;;;;;;33.47;10.15;;;;;;;1.03;100.00;95221.22;5050687;28;20053;-70
2023/03/27 09:12:11;;;;;;;30.98;10.13;;;;;;;1.04;100.00;95222.00;5039399;28;22573;-71
2023/03/27 09:14:52;;;;;;;26.92;10.43;;;;;;;1.06;100.00;95230.34;5046495;28;20040;-71
2023/03/27 09:17:24;;;;;;;36.15;11.43;;;;;;;1.09;100.00;95229.91;5047391;28;20045;-71
2023/03/27 09:20:07;;;;;;;217.82;21.50;;;;;;;1.07;100.00;95242.31;5037844;28;20555;-71
2023/03/27 09:22:42;;;;;;;45.47;11.63;;;;;;;1.03;100.00;95235.97;5040773;28;20125;-71
2023/03/27 09:25:27;;;;;;;30.63;10.90;;;;;;;1.00;100.00;95241.59;5043249;28;20040;-71
2023/03/27 09:27:53;;;;;;;42.58;11.35;;;;;;;1.14;100.00;95253.41;5039940;28;20103;-71
2023/03/27 09:30:32;;;;;;;31.08;10.15;;;;;;;1.11;100.00;95253.03;5044822;28;20044;-71
2023/03/27 09:33:04;;;;;;;40.47;10.70;;;;;;;1.14;100.00;95255.97;5035517;28;20132;-71
2023/03/27 09:35:33;;;;;;;40.22;11.60;;;;;;;1.17;100.00;95257.34;5031792;28;20532;-71
2023/03/27 09:38:02;;;;;;;27.25;10.02;;;;;;;1.15;100.00;95262.75;5032009;28;20045;-71
2023/03/27 09:40:47;;;;;;;27.75;10.07;;;;;;;1.24;100.00;95267.66;5041401;28;20034;-71
2023/03/27 09:43:26;;;;;;;29.52;9.45;;;;;;;1.31;100.00;95274.34;5041158;28;20062;-71
2023/03/27 09:45:53;;;;;;;34.83;11.15;;;;;;;1.31;100.00;95278.75;5035756;28;20042;-71
2023/03/27 09:48:30;;;;;;;26.88;8.95;;;;;;;1.38;100.00;95275.06;5037527;28;20595;-70
2023/03/27 09:50:57;;;;;;;37.70;10.10;;;;;;;1.40;100.00;95277.44;5039868;28;20064;-70
2023/03/27 09:53:22;;;;;;;33.40;9.10;;;;;;;1.43;100.00;95286.59;5039478;28;20548;-71
2023/03/27 09:55:58;;;;;;;30.27;10.15;;;;;;;1.51;100.00;95279.31;5034440;28;20046;-71
2023/03/27 09:58:39;;;;;;;30.92;10.35;;;;;;;1.46;100.00;95286.94;5040136;28;20048;-71
2023/03/27 10:01:14;;;;;;;47.45;11.48;;;;;;;1.48;100.00;95294.50;5039653;28;20095;-71
2023/03/27 10:03:49;;;;;;;53.13;11.38;;;;;;;1.64;100.00;95298.31;5044441;28;20124;-72
2023/03/27 10:06:26;;;;;;;21.75;8.90;;;;;;;1.64;100.00;95303.50;5037281;28;20041;-71
2023/03/27 10:08:54;;;;;;;25.98;9.13;;;;;;;1.72;100.00;95311.00;5044048;28;20106;-71
2023/03/27 10:11:24;;;;;;;21.40;8.23;;;;;;;1.83;100.00;95307.66;5039831;28;20040;-71
2023/03/27 10:13:51;;;;;;;37.88;10.35;;;;;;;1.86;100.00;95303.84;5041542;28;20527;-71
2023/03/27 10:16:20;;;;;;;29.88;9.32;;;;;;;1.77;100.00;95313.72;5042295;28;20041;-72
2023/03/27 10:18:55;;;;;;;21.13;7.53;;;;;;;1.72;100.00;95321.38;5045309;28;20071;-72
2023/03/27 10:21:28;;;;;;;33.45;8.93;;;;;;;2.02;100.00;95325.81;5042879;28;20099;-72
2023/03/27 10:24:18;;;;;;;26.67;8.95;;;;;;;2.36;100.00;95331.34;5037299;28;20045;-71
2023/03/27 10:26:47;;;;;;;26.90;8.40;;;;;;;2.45;100.00;95329.22;5036556;28;20040;-72
2023/03/27 10:29:34;;;;;;;23.80;8.10;;;;;;;2.76;100.00;95341.16;5038157;28;20045;-72
2023/03/27 10:32:02;;;;;;;18.77;7.25;;;;;;;2.50;100.00;95345.72;5041732;28;20045;-70
2023/03/27 10:34:33;;;;;;;20.95;6.88;;;;;;;2.31;100.00;95349.38;5043034;28;20045;-72
2023/03/27 10:37:00;;;;;;;22.15;6.85;;;;;;;2.22;100.00;95351.50;5041548;28;20048;-75
2023/03/27 10:39:34;;;;;;;22.95;6.57;;;;;;;2.45;100.00;95355.97;5046884;28;20037;-71
2023/03/27 10:42:08;;;;;;;22.90;7.15;;;;;;;2.31;100.00;95350.16;5038047;28;20050;-72
2023/03/27 10:44:37;;;;;;;16.35;6.88;;;;;;;2.34;100.00;95354.13;5034519;28;20045;-71
2023/03/27 10:47:04;;;;;;;23.00;7.30;;;;;;;2.19;100.00;95368.31;5041003;28;20041;-71
2023/03/27 10:49:44;;;;;;;20.25;6.85;;;;;;;2.27;100.00;95372.41;5062508;28;20037;-73
2023/03/27 10:52:21;;;;;;;28.20;6.22;;;;;;;2.34;100.00;95369.72;5038454;28;20037;-73
2023/03/27 10:54:56;;;;;;;25.98;5.60;;;;;;;2.49;100.00;95367.50;5039467;28;20452;-72
2023/03/27 10:57:26;;;;;;;16.35;6.07;;;;;;;2.49;100.00;95380.50;5040228;28;20052;-73
2023/03/27 11:00:17;;;;;;;14.00;5.95;;;;;;;2.65;100.00;95383.50;5040258;28;20092;-73
2023/03/27 11:02:42;;;;;;;16.02;5.07;;;;;;;2.65;100.00;95391.28;5034706;28;20037;-73
2023/03/27 11:05:15;;;;;;;14.38;5.40;;;;;;;2.71;100.00;95395.59;5046474;28;20064;-73
2023/03/27 11:08:07;;;;;;;12.38;5.00;;;;;;;2.73;100.00;95399.56;5039260;28;20040;-73
2023/03/27 11:10:40;;;;;;;17.42;5.45;;;;;;;2.72;100.00;95402.38;5039494;28;20425;-73
2023/03/27 11:13:29;;;;;;;12.68;5.57;;;;;;;2.54;100.00;95401.44;5039326;28;20049;-73
2023/03/27 11:16:36;;;;;;;14.45;5.60;;;;;;;3.17;100.00;95404.47;5043452;28;20090;-73
2023/03/27 11:19:11;;;;;;;27.08;5.32;;;;;;;3.18;100.00;95400.88;5038992;28;20045;-73
2023/03/27 11:21:43;;;;;;;14.75;5.53;;;;;;;3.16;100.00;95408.13;5038973;28;20076;-71
2023/03/27 11:24:21;;;;;;;16.45;5.53;;;;;;;3.24;100.00;95415.56;5032863;28;20045;-71
2023/03/27 11:27:00;;;;;;;16.85;5.45;;;;;;;3.40;100.00;95413.31;5039061;28;20068;-71
2023/03/27 11:29:31;;;;;;;13.75;5.32;;;;;;;3.31;100.00;95414.69;5039733;28;20117;-71
2023/03/27 11:32:04;;;;;;;14.23;4.88;;;;;;;3.47;100.00;95408.81;5037150;28;20048;-72
2023/03/27 11:34:41;;;;;;;18.48;4.80;;;;;;;3.49;100.00;95417.16;5029822;28;20091;-72
2023/03/27 11:37:22;;;;;;;15.50;4.57;;;;;;;4.06;100.00;95415.75;5037677;28;20416;-72
2023/03/27 11:39:54;;;;;;;10.27;4.53;;;;;;;3.95;100.00;95422.56;5039301;28;20053;-71
2023/03/27 11:42:25;;;;;;;9.93;4.40;;;;;;;4.38;100.00;95420.53;5043862;28;20090;-72
2023/03/27 11:44:51;;;;;;;15.57;4.00;;;;;;;4.34;100.00;95426.22;5037894;28;20501;-72
2023/03/27 11:47:35;;;;;;;10.98;4.05;;;;;;;4.03;100.00;95424.03;5045976;28;20037;-71
2023/03/27 11:50:17;;;;;;;8.48;3.75;;;;;;;4.06;100.00;95432.16;5044550;28;20052;-71